Time;durP1;ratioP1;P1;durP2;ratioP2;P2;SDS_P1;SDS_P2;PMS_P1;PMS_P2;Temp;Humidity;BMP_temperature;BMP_pressure;BME280_temperature;BME280_humidity;BME280_pressure;Samples;Min_cycle;Max_cycle;Signal;HPM_P1;HPM_P2
2022/09/01 00:00:32;;;;;;;5.27;1.60;;;16.10;90.00;;;;;;5031926;28;20974;-76
2022/09/01 00:03:01;;;;;;;3.50;2.00;;;16.00;90.00;;;;;;5033546;28;20447;-76
2022/09/01 00:05:30;;;;;;;2.80;1.60;;;16.00;90.10;;;;;;5036540;28;20857;-76
2022/09/01 00:07:58;;;;;;;2.30;1.70;;;16.00;90.20;;;;;;5036087;28;20504;-75
2022/09/01 00:10:26;;;;;;;3.03;1.53;;;15.90;90.20;;;;;;5035903;28;20548;-76
2022/09/01 00:12:54;;;;;;;2.50;2.03;;;15.90;90.20;;;;;;5037517;28;20449;-76
2022/09/01 00:15:23;;;;;;;3.50;1.73;;;15.80;90.30;;;;;;5035883;28;20520;-76
2022/09/01 00:17:51;;;;;;;2.90;1.70;;;15.80;90.30;;;;;;5035925;28;20417;-76
2022/09/01 00:20:21;;;;;;;2.10;1.47;;;15.80;90.40;;;;;;5053255;28;20602;-76
2022/09/01 00:22:49;;;;;;;2.40;2.00;;;15.80;90.50;;;;;;5037672;28;20471;-76
2022/09/01 00:25:18;;;;;;;2.87;1.63;;;15.80;90.50;;;;;;5037042;28;20443;-76
2022/09/01 00:27:48;;;;;;;3.50;1.40;;;15.70;90.50;;;;;;5035685;28;20442;-76
2022/09/01 00:30:16;;;;;;;2.00;1.60;;;15.70;90.60;;;;;;5035546;28;20469;-77
2022/09/01 00:32:45;;;;;;;3.73;1.63;;;15.70;90.70;;;;;;5035845;28;20418;-77
2022/09/01 00:35:14;;;;;;;2.93;1.70;;;15.70;90.80;;;;;;5035714;28;20429;-76
2022/09/01 00:37:44;;;;;;;3.90;1.90;;;15.70;91.10;;;;;;5037415;28;20412;-76
2022/09/01 00:40:14;;;;;;;3.23;1.60;;;15.60;90.90;;;;;;5035732;28;20870;-76
2022/09/01 00:42:43;;;;;;;2.60;1.70;;;15.60;90.90;;;;;;5035812;28;20433;-76
2022/09/01 00:45:12;;;;;;;3.20;1.83;;;15.60;91.00;;;;;;5035705;28;20446;-76
2022/09/01 00:47:41;;;;;;;2.30;1.53;;;15.60;91.00;;;;;;5035443;28;20424;-77
2022/09/01 00:50:12;;;;;;;2.97;1.50;;;15.60;91.00;;;;;;5036657;28;21034;-76
2022/09/01 00:52:46;;;;;;;2.77;1.90;;;15.50;91.10;;;;;;5035494;28;20943;-76
2022/09/01 00:55:18;;;;;;;3.90;2.63;;;15.50;91.10;;;;;;5036864;28;20394;-76
2022/09/01 00:57:47;;;;;;;2.90;1.80;;;15.50;91.20;;;;;;5035338;28;20453;-76
2022/09/01 01:00:19;;;;;;;2.67;1.80;;;15.40;91.10;;;;;;5036446;28;20520;-76
2022/09/01 01:02:52;;;;;;;3.20;1.87;;;15.40;91.20;;;;;;5035859;28;20534;-76
2022/09/01 01:05:22;;;;;;;2.83;1.70;;;15.40;91.20;;;;;;5036197;28;21021;-76
2022/09/01 01:07:51;;;;;;;3.73;1.67;;;15.40;91.30;;;;;;5035654;28;20456;-76
2022/09/01 01:10:22;;;;;;;2.73;1.53;;;15.30;91.30;;;;;;5034904;28;20538;-75
2022/09/01 01:12:51;;;;;;;2.80;1.90;;;15.30;91.40;;;;;;5034947;28;20597;-77
2022/09/01 01:15:20;;;;;;;2.70;2.03;;;15.30;91.40;;;;;;5033832;28;20425;-76
2022/09/01 01:17:49;;;;;;;3.27;1.60;;;15.30;91.50;;;;;;5034894;28;20815;-76
2022/09/01 01:23:28;;;;;;;2.70;1.90;;;15.30;91.60;;;;;;4997651;28;20418;-76
2022/09/01 01:25:59;;;;;;;3.50;1.93;;;15.30;91.60;;;;;;4997845;28;20525;-75
2022/09/01 01:28:32;;;;;;;2.20;1.70;;;15.30;91.70;;;;;;5015900;28;20876;-75
2022/09/01 01:31:10;;;;;;;4.43;2.00;;;15.30;91.70;;;;;;5034710;28;20442;-77
2022/09/01 01:33:42;;;;;;;3.10;1.80;;;15.30;91.80;;;;;;5034625;28;20446;-76
2022/09/01 01:36:16;;;;;;;4.27;2.00;;;15.20;91.80;;;;;;5034631;28;20435;-76
2022/09/01 01:38:46;;;;;;;2.33;1.73;;;15.20;91.80;;;;;;5034399;28;20470;-76
2022/09/01 01:41:18;;;;;;;3.10;2.10;;;15.20;91.90;;;;;;5035068;28;20952;-76
2022/09/01 01:43:49;;;;;;;2.60;1.70;;;15.20;91.90;;;;;;5034469;28;20763;-76
2022/09/01 01:46:20;;;;;;;3.00;1.90;;;15.20;91.90;;;;;;5034406;28;20442;-76
2022/09/01 01:48:51;;;;;;;2.37;1.47;;;15.20;92.00;;;;;;5035533;28;20512;-76
2022/09/01 01:51:23;;;;;;;3.20;1.97;;;15.20;92.10;;;;;;5034150;28;20470;-76
2022/09/01 01:53:54;;;;;;;2.47;1.93;;;15.20;92.10;;;;;;5035780;28;20816;-76
2022/09/01 01:56:24;;;;;;;4.00;1.80;;;15.20;92.20;;;;;;5034147;28;20425;-77
2022/09/01 01:58:55;;;;;;;5.50;1.90;;;15.20;92.20;;;;;;5034040;28;20900;-76
2022/09/01 02:01:24;;;;;;;2.23;2.00;;;15.10;92.20;;;;;;5034391;28;20422;-76
2022/09/01 02:03:53;;;;;;;3.00;2.07;;;15.10;92.30;;;;;;5034031;28;20447;-76
2022/09/01 02:06:24;;;;;;;3.90;2.07;;;15.10;92.30;;;;;;5035285;28;20416;-76
2022/09/01 02:08:57;;;;;;;2.50;1.90;;;15.10;92.40;;;;;;5034402;28;20445;-76
2022/09/01 02:11:27;;;;;;;4.40;2.33;;;15.10;92.50;;;;;;5033892;28;20893;-76
2022/09/01 02:13:56;;;;;;;3.03;2.10;;;15.10;92.60;;;;;;5033801;28;20435;-76
2022/09/01 02:16:26;;;;;;;2.50;1.50;;;15.10;92.60;;;;;;5033719;28;20538;-76
2022/09/01 02:18:56;;;;;;;2.20;1.80;;;15.00;92.70;;;;;;5033586;28;20838;-76
2022/09/01 02:21:26;;;;;;;2.60;2.10;;;15.00;92.70;;;;;;5035103;28;20409;-76
2022/09/01 02:23:59;;;;;;;2.87;2.20;;;15.00;92.80;;;;;;5033537;28;20417;-76
2022/09/01 02:26:31;;;;;;;2.30;2.03;;;15.00;92.90;;;;;;5033327;28;20946;-76
2022/09/01 02:29:03;;;;;;;2.67;2.33;;;15.00;92.90;;;;;;5033452;28;20473;-76
2022/09/01 02:31:34;;;;;;;4.90;2.20;;;14.90;92.90;;;;;;5033369;28;20967;-76
2022/09/01 02:34:03;;;;;;;2.90;2.20;;;15.00;93.00;;;;;;5033326;28;20443;-76
2022/09/01 02:36:33;;;;;;;6.47;2.20;;;14.90;93.00;;;;;;5033372;28;20454;-76
2022/09/01 02:39:03;;;;;;;2.97;2.13;;;14.90;93.10;;;;;;5034079;28;20566;-76
2022/09/01 02:41:36;;;;;;;3.43;2.40;;;14.90;93.10;;;;;;5033166;28;20447;-77
2022/09/01 02:44:10;;;;;;;3.37;2.40;;;14.90;93.20;;;;;;5033130;28;20450;-76
2022/09/01 02:46:40;;;;;;;3.30;2.27;;;14.90;93.20;;;;;;5034474;28;20405;-76
2022/09/01 02:49:14;;;;;;;3.90;2.10;;;14.90;93.20;;;;;;5033072;28;20445;-77
2022/09/01 02:51:43;;;;;;;4.57;2.23;;;14.80;93.20;;;;;;5033069;28;20464;-77
2022/09/01 02:54:14;;;;;;;2.47;2.00;;;14.80;93.20;;;;;;5032983;28;20447;-76
2022/09/01 02:56:47;;;;;;;2.63;1.93;;;14.80;93.30;;;;;;5033160;28;20546;-76
2022/09/01 02:59:15;;;;;;;2.30;1.90;;;14.70;93.30;;;;;;5032922;28;20517;-76
2022/09/01 03:01:46;;;;;;;2.93;2.13;;;14.70;93.30;;;;;;5032889;28;20414;-76
2022/09/01 03:04:15;;;;;;;3.07;2.10;;;14.70;93.40;;;;;;5033086;28;20446;-76
2022/09/01 03:06:44;;;;;;;3.43;1.80;;;14.70;93.40;;;;;;5032793;28;20446;-76
2022/09/01 03:09:16;;;;;;;3.20;1.97;;;14.60;93.40;;;;;;5032697;28;20494;-76
2022/09/01 03:11:49;;;;;;;2.93;1.80;;;14.60;93.40;;;;;;5032641;28;20475;-77
2022/09/01 03:14:19;;;;;;;2.43;1.90;;;14.60;93.50;;;;;;5033853;28;20453;-77
2022/09/01 03:16:47;;;;;;;5.30;2.17;;;14.50;93.50;;;;;;5033781;28;20533;-76
2022/09/01 03:19:17;;;;;;;2.43;1.93;;;14.50;93.60;;;;;;5032429;28;20441;-77
2022/09/01 03:21:47;;;;;;;3.00;2.10;;;14.50;93.70;;;;;;5033372;28;20428;-76
2022/09/01 03:24:21;;;;;;;4.17;2.90;;;14.50;93.70;;;;;;5033071;28;20447;-76
2022/09/01 03:26:52;;;;;;;3.07;2.30;;;14.40;93.80;;;;;;5033510;28;20463;-77
2022/09/01 03:29:20;;;;;;;3.67;2.80;;;14.40;93.90;;;;;;5032406;28;20502;-76
2022/09/01 03:31:48;;;;;;;3.20;2.40;;;14.40;94.00;;;;;;5032267;28;20518;-76
2022/09/01 03:34:18;;;;;;;4.57;2.67;;;14.40;94.10;;;;;;5032281;28;20417;-75
2022/09/01 03:36:49;;;;;;;3.17;2.63;;;14.40;94.10;;;;;;5033946;28;20427;-75
2022/09/01 03:39:25;;;;;;;2.80;2.30;;;14.40;94.20;;;;;;5031694;28;20458;-76
2022/09/01 03:41:57;;;;;;;3.20;2.90;;;14.30;94.30;;;;;;5032391;28;20454;-76
2022/09/01 03:44:25;;;;;;;3.53;2.60;;;14.30;94.40;;;;;;5032885;28;20429;-76
2022/09/01 03:46:53;;;;;;;3.53;2.43;;;14.30;94.40;;;;;;5033795;28;20521;-76
2022/09/01 03:49:27;;;;;;;4.73;2.70;;;14.30;94.50;;;;;;5032177;28;20467;-76
2022/09/01 03:51:57;;;;;;;2.60;2.40;;;14.30;94.50;;;;;;5032098;28;20887;-76
2022/09/01 03:54:29;;;;;;;5.17;2.30;;;14.20;94.50;;;;;;5032294;28;21022;-76
2022/09/01 03:56:59;;;;;;;4.10;2.50;;;14.20;94.60;;;;;;5032082;28;20463;-76
2022/09/01 03:59:29;;;;;;;3.07;2.53;;;14.20;94.60;;;;;;5033536;28;20956;-76
2022/09/01 04:01:58;;;;;;;3.50;2.50;;;14.20;94.90;;;;;;5032225;28;20451;-75
2022/09/01 04:04:30;;;;;;;2.90;2.40;;;14.10;94.60;;;;;;5032184;28;20944;-76
2022/09/01 04:06:59;;;;;;;3.50;2.80;;;14.10;94.70;;;;;;5032438;28;20455;-76
2022/09/01 04:09:29;;;;;;;3.77;2.50;;;14.10;94.80;;;;;;5032022;28;20482;-76
2022/09/01 04:11:57;;;;;;;3.87;3.10;;;14.10;94.80;;;;;;5033141;28;20466;-76
2022/09/01 04:14:27;;;;;;;4.23;2.80;;;14.00;94.90;;;;;;5031942;28;20483;-76
2022/09/01 04:19:43;;;;;;;3.97;2.80;;;14.00;95.30;;;;;;5033109;28;20512;-76
2022/09/01 04:22:13;;;;;;;4.00;2.70;;;14.00;95.00;;;;;;5031929;28;20439;-77
2022/09/01 04:24:45;;;;;;;3.20;2.90;;;13.90;95.00;;;;;;5032043;28;20439;-76
2022/09/01 04:27:16;;;;;;;3.90;3.17;;;13.90;95.10;;;;;;5033094;28;20443;-77
2022/09/01 04:29:47;;;;;;;3.30;3.00;;;13.90;95.10;;;;;;5031829;28;20986;-76
2022/09/01 04:32:15;;;;;;;3.63;3.10;;;13.80;95.20;;;;;;5031764;28;20495;-77
2022/09/01 04:34:47;;;;;;;5.17;3.00;;;13.90;95.50;;;;;;5031731;28;20470;-77
2022/09/01 04:37:19;;;;;;;2.73;2.33;;;13.80;95.30;;;;;;5031728;28;20451;-76
2022/09/01 04:39:55;;;;;;;3.87;2.90;;;13.80;95.30;;;;;;5031675;28;20470;-76
2022/09/01 04:42:27;;;;;;;3.50;3.13;;;13.80;95.40;;;;;;5032348;28;20440;-76
2022/09/01 04:44:59;;;;;;;4.67;3.20;;;13.80;95.40;;;;;;5031717;28;20496;-76
2022/09/01 04:47:40;;;;;;;4.93;3.37;;;13.80;95.50;;;;;;5048440;28;20982;-76
2022/09/01 04:50:16;;;;;;;3.43;3.13;;;13.70;95.60;;;;;;5033602;28;20462;-77
2022/09/01 04:53:06;;;;;;;4.90;4.40;;;13.70;95.70;;;;;;5036465;28;20482;-76
2022/09/01 04:55:54;;;;;;;5.03;4.53;;;13.70;95.80;;;;;;5036363;28;20513;-77
2022/09/01 04:58:25;;;;;;;4.33;3.73;;;13.70;96.00;;;;;;5036078;28;20435;-76
2022/09/01 05:00:55;;;;;;;4.60;4.00;;;13.70;96.10;;;;;;5035457;28;20902;-77
2022/09/01 05:03:24;;;;;;;5.50;3.53;;;13.70;96.30;;;;;;5035295;28;20457;-76
2022/09/01 05:06:00;;;;;;;3.90;3.60;;;13.70;96.40;;;;;;5035449;28;20455;-77
2022/09/01 05:08:29;;;;;;;4.03;3.50;;;13.70;96.50;;;;;;5035159;28;20505;-77
2022/09/01 05:11:06;;;;;;;3.97;3.60;;;13.70;96.70;;;;;;5035421;28;20492;-76
2022/09/01 05:13:44;;;;;;;4.17;3.63;;;13.70;96.80;;;;;;5035139;28;20812;-75
2022/09/01 05:16:18;;;;;;;5.60;4.20;;;13.70;96.90;;;;;;5037861;28;20447;-76
2022/09/01 05:18:55;;;;;;;3.77;3.43;;;13.70;97.00;;;;;;5035467;28;20466;-75
2022/09/01 05:21:28;;;;;;;4.27;3.87;;;13.70;97.10;;;;;;5035353;28;20442;-76
2022/09/01 05:23:59;;;;;;;4.23;3.83;;;13.70;97.20;;;;;;5034954;28;20449;-76
2022/09/01 05:26:30;;;;;;;6.00;3.90;;;13.70;97.30;;;;;;5035060;28;20896;-76
2022/09/01 05:29:01;;;;;;;3.97;3.50;;;13.70;97.50;;;;;;5034815;28;20469;-76
2022/09/01 05:31:33;;;;;;;4.20;3.63;;;13.80;97.60;;;;;;5034909;28;20469;-76
2022/09/01 05:34:02;;;;;;;4.07;3.67;;;13.70;97.70;;;;;;5035553;28;20439;-75
2022/09/01 05:36:32;;;;;;;4.73;4.33;;;13.80;97.80;;;;;;5034715;28;20474;-76
2022/09/01 05:39:01;;;;;;;4.33;3.93;;;13.80;97.90;;;;;;5035343;28;20930;-76
2022/09/01 05:41:29;;;;;;;4.70;4.30;;;13.80;98.00;;;;;;5034587;28;20449;-76
2022/09/01 05:43:58;;;;;;;4.43;4.03;;;13.80;98.10;;;;;;5034396;28;20450;-77
2022/09/01 05:46:30;;;;;;;4.70;4.30;;;13.80;98.20;;;;;;5034326;28;20497;-76
2022/09/01 05:48:59;;;;;;;3.80;3.50;;;13.80;98.30;;;;;;5035539;28;20542;-76
2022/09/01 05:51:33;;;;;;;4.33;3.53;;;13.90;98.50;;;;;;5034170;28;20840;-76
2022/09/01 05:54:13;;;;;;;3.63;3.33;;;13.90;98.60;;;;;;5035010;28;20447;-76
2022/09/01 05:56:43;;;;;;;3.53;3.20;;;13.90;98.70;;;;;;5034195;28;20447;-77
2022/09/01 05:59:19;;;;;;;4.70;4.10;;;14.00;98.80;;;;;;5034212;28;20477;-76
2022/09/01 06:01:55;;;;;;;5.70;3.87;;;14.00;98.90;;;;;;5034081;28;20530;-76
2022/09/01 06:04:25;;;;;;;4.90;3.87;;;14.00;99.00;;;;;;5034144;28;20451;-76
2022/09/01 06:07:00;;;;;;;4.30;3.90;;;14.10;99.10;;;;;;5034389;28;20457;-76
2022/09/01 06:09:38;;;;;;;6.30;3.60;;;14.20;99.20;;;;;;5034440;28;20893;-76
2022/09/01 06:12:07;;;;;;;4.90;4.40;;;14.30;99.30;;;;;;5036149;28;20474;-76
2022/09/01 06:14:35;;;;;;;4.83;4.37;;;14.50;99.40;;;;;;5036401;28;20533;-76
2022/09/01 06:17:05;;;;;;;4.93;4.53;;;14.80;99.50;;;;;;5036919;28;20458;-75
2022/09/01 06:19:34;;;;;;;6.00;4.43;;;15.00;99.50;;;;;;5034404;28;20513;-75
2022/09/01 06:22:06;;;;;;;5.43;4.70;;;15.20;99.50;;;;;;5050816;28;20446;-76
2022/09/01 06:24:34;;;;;;;4.77;4.37;;;15.40;99.40;;;;;;5033852;28;20493;-74
2022/09/01 06:27:02;;;;;;;6.50;3.47;;;15.60;99.30;;;;;;5035077;28;20830;-75
2022/09/01 06:29:30;;;;;;;4.30;3.90;;;15.80;99.30;;;;;;5034964;28;20822;-75
2022/09/01 06:32:01;;;;;;;4.07;3.10;;;16.00;99.30;;;;;;5033431;28;20493;-76
2022/09/01 06:34:34;;;;;;;4.30;3.90;;;16.20;99.20;;;;;;5035110;28;20430;-76
2022/09/01 06:37:03;;;;;;;3.40;3.07;;;16.30;99.10;;;;;;5033494;28;20506;-76
2022/09/01 06:39:33;;;;;;;3.77;3.37;;;16.50;99.00;;;;;;5033334;28;20433;-77
2022/09/01 06:42:01;;;;;;;3.93;3.40;;;16.70;98.90;;;;;;5033301;28;20453;-76
2022/09/01 06:44:45;;;;;;;3.70;2.90;;;16.90;98.80;;;;;;5033364;28;20410;-76
2022/09/01 06:47:14;;;;;;;3.63;3.30;;;17.10;98.80;;;;;;5033286;28;20489;-76
2022/09/01 06:49:44;;;;;;;3.63;3.13;;;17.30;98.70;;;;;;5033039;28;20490;-76
2022/09/01 06:52:22;;;;;;;3.47;3.10;;;17.50;98.60;;;;;;5033194;28;20466;-76
2022/09/01 06:54:53;;;;;;;3.13;2.83;;;17.60;98.50;;;;;;5033589;28;20504;-77
2022/09/01 06:57:21;;;;;;;5.67;4.20;;;17.80;98.40;;;;;;5033092;28;20457;-76
2022/09/01 07:00:16;;;;;;;3.83;2.83;;;18.00;98.30;;;;;;5033044;28;20471;-76
2022/09/01 07:03:07;;;;;;;4.50;3.00;;;18.20;98.20;;;;;;5033100;28;20450;-75
2022/09/01 07:05:44;;;;;;;4.00;3.17;;;18.40;98.00;;;;;;5033528;28;20443;-76
2022/09/01 07:08:49;;;;;;;3.13;2.77;;;18.50;97.80;;;;;;5034893;28;20521;-76
2022/09/01 07:11:39;;;;;;;4.97;2.93;;;18.70;97.80;;;;;;5033228;28;20509;-77
2022/09/01 07:14:27;;;;;;;3.60;3.07;;;18.90;97.80;;;;;;5031961;28;20471;-76
2022/09/01 07:16:57;;;;;;;2.90;2.40;;;19.10;97.70;;;;;;5033019;28;20474;-76
2022/09/01 07:19:46;;;;;;;4.80;3.00;;;19.20;97.50;;;;;;5032906;28;20463;-76
2022/09/01 07:22:17;;;;;;;4.30;2.47;;;19.30;97.30;;;;;;5032824;28;20435;-76
2022/09/01 07:25:11;;;;;;;3.47;2.60;;;19.40;97.20;;;;;;5032570;28;20450;-77
2022/09/01 07:27:47;;;;;;;4.03;2.60;;;19.60;97.10;;;;;;5035671;28;20469;-78
2022/09/01 07:30:19;;;;;;;7.43;2.57;;;19.70;97.40;;;;;;5033505;28;20463;-77
2022/09/01 07:32:52;;;;;;;3.37;1.70;;;19.90;97.20;;;;;;5034235;28;20458;-77
2022/09/01 07:35:22;;;;;;;2.83;1.70;;;20.00;97.00;;;;;;5033472;28;20447;-76
2022/09/01 07:37:54;;;;;;;3.07;1.73;;;20.10;96.70;;;;;;5032790;28;20447;-76
2022/09/01 07:40:44;;;;;;;4.17;1.80;;;20.20;96.40;;;;;;5032666;28;20490;-76
2022/09/01 07:44:09;;;;;;;2.33;1.50;;;20.20;96.00;;;;;;5022491;28;20964;-77
2022/09/01 07:46:50;;;;;;;3.63;2.00;;;20.30;95.80;;;;;;5034278;28;20415;-76
2022/09/01 07:49:40;;;;;;;2.97;1.40;;;20.30;95.70;;;;;;5032512;28;20554;-77
2022/09/01 07:52:30;;;;;;;2.30;1.43;;;20.40;95.50;;;;;;5032383;28;20996;-77
2022/09/01 07:55:00;;;;;;;3.30;1.70;;;20.50;95.30;;;;;;5032610;28;20447;-76
2022/09/01 07:57:29;;;;;;;3.60;1.57;;;20.50;95.00;;;;;;5033708;28;20534;-76
2022/09/01 07:59:57;;;;;;;2.27;1.47;;;20.60;94.80;;;;;;5032527;28;21045;-76
2022/09/01 08:02:40;;;;;;;2.67;1.33;;;20.70;94.60;;;;;;5033612;28;20783;-76
2022/09/01 08:05:13;;;;;;;2.30;1.40;;;20.80;94.30;;;;;;5032263;28;20478;-77
2022/09/01 08:07:42;;;;;;;3.03;1.60;;;20.80;94.00;;;;;;5033055;28;20541;-76
2022/09/01 08:10:33;;;;;;;3.20;1.47;;;20.90;93.70;;;;;;5032491;28;20475;-76
2022/09/01 08:13:04;;;;;;;3.67;1.37;;;20.90;93.60;;;;;;5032555;28;20493;-76
2022/09/01 08:15:34;;;;;;;3.63;1.23;;;21.00;93.60;;;;;;5032163;28;20477;-76
2022/09/01 08:18:22;;;;;;;2.27;1.30;;;21.10;93.40;;;;;;5032054;28;20459;-76
2022/09/01 08:20:51;;;;;;;2.17;1.10;;;21.20;93.10;;;;;;5036648;28;20841;-76
2022/09/01 08:23:26;;;;;;;2.17;1.20;;;21.30;92.60;;;;;;5034296;28;20430;-77
2022/09/01 08:25:56;;;;;;;2.10;1.30;;;21.30;92.40;;;;;;5035642;28;20851;-76
2022/09/01 08:28:24;;;;;;;2.77;1.17;;;21.30;92.20;;;;;;5037485;28;20431;-78
2022/09/01 08:30:56;;;;;;;4.87;1.10;;;21.40;92.00;;;;;;5036994;28;20574;-78
2022/09/01 08:33:26;;;;;;;2.00;0.80;;;21.40;91.80;;;;;;5036954;28;20474;-77
2022/09/01 08:35:56;;;;;;;3.10;1.10;;;21.50;91.40;;;;;;5038014;28;20470;-76
2022/09/01 08:38:25;;;;;;;2.10;1.20;;;21.60;91.50;;;;;;5037147;28;20478;-76
2022/09/01 08:40:57;;;;;;;1.77;1.03;;;21.70;91.20;;;;;;5037314;28;20447;-77
2022/09/01 08:43:43;;;;;;;2.50;1.20;;;21.70;90.80;;;;;;5036869;28;20962;-75
2022/09/01 08:46:16;;;;;;;3.13;1.00;;;21.70;90.50;;;;;;5036800;28;20534;-76
2022/09/01 08:48:49;;;;;;;2.93;1.50;;;21.80;90.60;;;;;;5036428;28;20470;-79
2022/09/01 08:52:02;;;;;;;3.83;1.20;;;21.80;90.30;;;;;;5037143;28;20442;-77
2022/09/01 08:54:37;;;;;;;3.17;1.97;;;21.90;90.00;;;;;;5036044;28;20455;-77
2022/09/01 08:57:10;;;;;;;3.23;1.00;;;21.90;89.80;;;;;;5037843;28;20446;-78
2022/09/01 08:59:58;;;;;;;4.13;1.20;;;21.90;89.80;;;;;;5039903;28;20461;-78
2022/09/01 09:02:45;;;;;;;2.87;1.20;;;22.00;89.70;;;;;;5038293;28;20447;-78
2022/09/01 09:05:30;;;;;;;7.40;1.23;;;22.00;88.80;;;;;;5037538;28;20538;-77
2022/09/01 09:08:21;;;;;;;3.40;0.93;;;22.10;88.30;;;;;;5036016;28;20458;-77
2022/09/01 09:11:00;;;;;;;2.83;1.00;;;22.10;88.30;;;;;;5022452;28;20533;-78
2022/09/01 09:13:41;;;;;;;2.20;1.30;;;22.10;87.80;;;;;;5039469;28;20462;-76
2022/09/01 09:16:13;;;;;;;2.50;1.10;;;22.10;87.70;;;;;;5038119;28;20932;-78
2022/09/01 09:18:47;;;;;;;1.60;0.90;;;22.20;87.10;;;;;;5037209;28;20462;-75
2022/09/01 09:21:28;;;;;;;3.07;0.83;;;22.20;86.00;;;;;;5037904;28;20429;-78
2022/09/01 09:24:07;;;;;;;3.70;1.10;;;22.20;85.90;;;;;;5037037;28;20484;-78
2022/09/01 09:26:35;;;;;;;3.23;1.30;;;22.20;85.80;;;;;;5038997;28;20424;-78
2022/09/01 09:29:13;;;;;;;1.70;1.00;;;22.30;85.80;;;;;;5039585;28;20485;-77
2022/09/01 09:31:47;;;;;;;3.73;1.20;;;22.40;85.60;;;;;;5037568;28;20553;-78
2022/09/01 09:34:32;;;;;;;2.10;1.07;;;22.40;84.70;;;;;;5040961;28;20516;-77
2022/09/01 09:37:20;;;;;;;2.50;0.90;;;22.50;83.80;;;;;;5037239;28;20945;-77
2022/09/01 09:40:14;;;;;;;2.03;0.90;;;22.50;83.10;;;;;;5036103;28;20470;-77
2022/09/01 09:43:02;;;;;;;2.33;0.90;;;22.50;82.50;;;;;;5035886;28;20454;-77
2022/09/01 09:45:34;;;;;;;2.33;0.90;;;22.50;81.50;;;;;;5036603;28;21008;-77
2022/09/01 09:48:07;;;;;;;2.43;0.90;;;22.50;81.50;;;;;;5036597;28;20485;-78
2022/09/01 09:50:39;;;;;;;2.00;1.30;;;22.50;81.30;;;;;;5037611;28;20559;-77
2022/09/01 09:53:17;;;;;;;2.10;1.03;;;22.50;81.10;;;;;;5037512;28;20462;-77
2022/09/01 09:55:56;;;;;;;2.53;1.07;;;22.50;80.90;;;;;;5037561;28;20430;-77
2022/09/01 09:58:27;;;;;;;3.27;1.10;;;22.60;81.00;;;;;;5052049;28;20557;-77
2022/09/01 10:01:15;;;;;;;2.27;0.90;;;22.60;80.80;;;;;;5037431;28;20792;-77
2022/09/01 10:03:47;;;;;;;1.97;1.17;;;22.70;80.40;;;;;;5035893;28;20447;-77
2022/09/01 10:06:33;;;;;;;4.00;0.90;;;22.80;80.50;;;;;;5037761;28;20762;-77
2022/09/01 10:09:04;;;;;;;3.60;1.20;;;22.80;80.40;;;;;;5036560;28;20467;-77
2022/09/01 10:11:37;;;;;;;3.60;1.13;;;22.90;80.30;;;;;;5036216;28;20518;-78
2022/09/01 10:14:14;;;;;;;2.10;0.93;;;22.90;80.10;;;;;;5035704;28;20485;-77
2022/09/01 10:17:12;;;;;;;3.17;0.90;;;23.00;79.80;;;;;;5035745;28;20466;-78
2022/09/01 10:19:48;;;;;;;2.50;1.00;;;23.00;79.30;;;;;;5037404;28;20516;-77
2022/09/01 10:22:17;;;;;;;1.83;0.90;;;23.00;78.90;;;;;;5035325;28;20430;-78
2022/09/01 10:24:45;;;;;;;2.17;1.07;;;23.00;78.40;;;;;;5036579;28;20439;-77
2022/09/01 10:27:22;;;;;;;2.63;1.00;;;23.00;78.20;;;;;;5036021;28;20506;-77
2022/09/01 10:29:55;;;;;;;3.27;1.00;;;22.90;77.80;;;;;;5035529;28;20487;-77
2022/09/01 10:32:45;;;;;;;1.63;0.60;;;23.00;77.60;;;;;;5037179;28;20431;-77
2022/09/01 10:35:24;;;;;;;2.00;0.90;;;22.90;77.40;;;;;;5035966;28;20455;-76
2022/09/01 10:37:54;;;;;;;2.23;1.13;;;22.90;77.40;;;;;;5036046;28;20424;-78
2022/09/01 10:40:43;;;;;;;1.70;0.90;;;23.00;77.50;;;;;;5034935;28;20471;-77
2022/09/01 10:43:27;;;;;;;2.30;0.70;;;23.00;77.20;;;;;;5036145;28;20423;-76
2022/09/01 10:45:55;;;;;;;2.63;0.93;;;23.00;77.00;;;;;;5035502;28;20447;-77
2022/09/01 10:48:35;;;;;;;1.90;0.70;;;23.00;77.00;;;;;;5035769;28;20442;-77
2022/09/01 10:51:42;;;;;;;1.80;0.97;;;23.00;76.70;;;;;;5035535;28;20458;-76
2022/09/01 10:54:52;;;;;;;2.77;1.00;;;23.00;76.60;;;;;;5035149;28;20458;-77
2022/09/01 10:57:38;;;;;;;2.23;1.10;;;23.10;76.40;;;;;;5035455;28;20535;-77
2022/09/01 11:00:47;;;;;;;1.97;0.97;;;23.10;76.60;;;;;;5036045;28;20542;-76
2022/09/01 11:04:01;;;;;;;2.10;1.03;;;23.10;76.50;;;;;;5051265;28;20857;-77
2022/09/01 11:07:00;;;;;;;1.90;0.80;;;23.10;76.60;;;;;;5036082;28;20843;-77
2022/09/01 11:09:47;;;;;;;2.30;0.90;;;23.10;76.70;;;;;;5035615;28;20556;-77
2022/09/01 11:12:28;;;;;;;1.87;0.77;;;23.10;76.70;;;;;;5035545;28;20431;-77
2022/09/01 11:14:59;;;;;;;3.67;0.83;;;23.20;76.50;;;;;;5040201;28;20478;-77
2022/09/01 11:17:31;;;;;;;1.80;1.10;;;23.10;76.10;;;;;;5036463;28;20419;-77
2022/09/01 11:20:09;;;;;;;2.13;0.90;;;23.20;75.90;;;;;;5035759;28;20993;-77
2022/09/01 11:22:41;;;;;;;2.23;0.80;;;23.10;75.60;;;;;;5034903;28;20418;-77
2022/09/01 11:25:31;;;;;;;1.80;0.90;;;23.10;75.70;;;;;;5032976;28;20550;-78
2022/09/01 11:28:40;;;;;;;2.03;0.87;;;23.10;75.30;;;;;;5033132;28;20461;-76
2022/09/01 11:31:40;;;;;;;1.70;1.10;;;23.20;75.10;;;;;;5033005;28;20438;-77
2022/09/01 11:34:16;;;;;;;1.70;1.00;;;23.20;75.10;;;;;;5030679;28;21032;-77
2022/09/01 11:36:55;;;;;;;1.90;0.90;;;23.20;75.20;;;;;;5034671;28;20796;-77
2022/09/01 11:39:37;;;;;;;2.23;0.80;;;23.20;75.10;;;;;;5034224;28;20462;-76
2022/09/01 11:42:12;;;;;;;1.70;1.00;;;23.20;74.90;;;;;;5034379;28;20454;-76
2022/09/01 11:44:45;;;;;;;2.00;0.80;;;23.20;74.80;;;;;;5033412;28;20454;-76
2022/09/01 11:47:17;;;;;;;2.37;1.03;;;23.30;74.80;;;;;;5033277;28;20467;-77
2022/09/01 11:49:52;;;;;;;1.97;0.90;;;23.30;74.70;;;;;;5034181;28;20545;-76
2022/09/01 11:52:25;;;;;;;2.43;0.90;;;23.30;74.30;;;;;;5034000;28;20830;-78
2022/09/01 11:54:54;;;;;;;1.83;0.83;;;23.20;74.00;;;;;;5032440;28;20479;-76
2022/09/01 11:57:26;;;;;;;2.00;0.63;;;23.10;73.90;;;;;;5032822;28;20526;-77
2022/09/01 11:59:56;;;;;;;2.33;0.93;;;23.10;74.10;;;;;;5034286;28;20463;-76
2022/09/01 12:02:28;;;;;;;1.70;1.03;;;23.10;74.20;;;;;;5032907;28;20451;-78
2022/09/01 12:04:57;;;;;;;2.57;1.00;;;23.20;74.40;;;;;;5033122;28;20438;-77
2022/09/01 12:07:35;;;;;;;2.67;1.00;;;23.20;74.40;;;;;;5032983;28;20455;-77
2022/09/01 12:10:07;;;;;;;2.43;1.20;;;23.30;74.00;;;;;;5034536;28;20469;-77
2022/09/01 12:12:38;;;;;;;2.00;1.30;;;23.30;73.80;;;;;;5032487;28;20947;-77
2022/09/01 12:15:11;;;;;;;1.53;0.80;;;23.30;73.50;;;;;;5033708;28;21064;-77
2022/09/01 12:17:41;;;;;;;2.90;0.80;;;23.30;73.30;;;;;;5032388;28;20446;-77
2022/09/01 12:20:26;;;;;;;1.90;0.70;;;23.30;73.10;;;;;;5034068;28;20463;-76
2022/09/01 12:23:01;;;;;;;1.70;0.80;;;23.30;73.20;;;;;;5032494;28;20449;-76
2022/09/01 12:25:31;;;;;;;2.63;1.03;;;23.40;73.30;;;;;;5033957;28;20481;-77
2022/09/01 12:28:00;;;;;;;1.80;0.73;;;23.40;73.20;;;;;;5033965;28;20424;-77
2022/09/01 12:30:34;;;;;;;1.60;0.73;;;23.40;73.00;;;;;;5033179;28;21023;-77
2022/09/01 12:33:05;;;;;;;3.90;1.00;;;23.40;72.60;;;;;;5032190;28;20478;-79
2022/09/01 12:35:50;;;;;;;2.60;1.33;;;23.40;72.60;;;;;;5034512;28;20455;-77
2022/09/01 12:38:33;;;;;;;2.90;1.10;;;23.30;72.40;;;;;;5033550;28;20419;-77
2022/09/01 12:41:01;;;;;;;3.23;0.80;;;23.30;72.40;;;;;;5034143;28;20518;-77
2022/09/01 12:43:35;;;;;;;1.93;0.80;;;23.40;72.50;;;;;;5032574;28;20446;-77
2022/09/01 12:46:05;;;;;;;2.10;0.70;;;23.40;72.20;;;;;;5033878;28;20838;-77
2022/09/01 12:48:36;;;;;;;1.60;0.77;;;23.40;72.10;;;;;;5032372;28;20473;-77
2022/09/01 12:51:15;;;;;;;2.20;1.30;;;23.40;72.10;;;;;;5032136;28;20455;-78
2022/09/01 12:53:51;;;;;;;3.47;1.20;;;23.40;72.10;;;;;;5033797;28;20457;-77
2022/09/01 12:56:25;;;;;;;1.80;1.00;;;23.40;72.20;;;;;;5032222;28;20470;-77
2022/09/01 12:59:06;;;;;;;2.23;1.20;;;23.40;72.20;;;;;;5032191;28;20473;-77
2022/09/01 13:01:43;;;;;;;2.13;1.20;;;23.30;72.10;;;;;;5032834;28;20448;-77
2022/09/01 13:04:29;;;;;;;2.20;1.27;;;23.30;72.10;;;;;;5034252;28;20514;-76
2022/09/01 13:07:03;;;;;;;3.00;1.20;;;23.30;71.80;;;;;;5032572;28;20489;-77
2022/09/01 13:09:32;;;;;;;3.20;1.27;;;23.30;71.80;;;;;;5033789;28;20501;-77
2022/09/01 13:12:17;;;;;;;2.00;1.10;;;23.30;71.70;;;;;;5035856;28;20517;-77
2022/09/01 13:14:45;;;;;;;2.90;1.30;;;23.30;71.60;;;;;;5035450;28;20483;-76
2022/09/01 13:17:13;;;;;;;3.20;1.23;;;23.30;71.60;;;;;;5037268;28;20506;-77
2022/09/01 13:19:42;;;;;;;1.60;0.87;;;23.40;71.50;;;;;;5037010;28;20504;-77
2022/09/01 13:22:10;;;;;;;2.20;1.10;;;23.30;71.10;;;;;;5036632;28;20538;-77
2022/09/01 13:24:40;;;;;;;2.00;1.00;;;23.30;70.80;;;;;;5035668;28;20970;-77
2022/09/01 13:27:09;;;;;;;1.83;1.00;;;23.30;70.60;;;;;;5036788;28;20530;-76
2022/09/01 13:29:54;;;;;;;1.73;0.90;;;23.40;70.80;;;;;;5036797;28;20463;-77
2022/09/01 13:32:23;;;;;;;2.80;0.87;;;23.50;71.00;;;;;;5035831;28;20823;-77